sensor_id;sensor_type;location;lat;lon;timestamp;temperature;humidity
15615;DHT22;7907;51.368;6.730;2022-12-20T00:02:11;11.00;99.90
15615;DHT22;7907;51.368;6.730;2022-12-20T00:04:38;11.00;99.90
15615;DHT22;7907;51.368;6.730;2022-12-20T00:07:05;11.00;99.90
15615;DHT22;7907;51.368;6.730;2022-12-20T00:09:33;11.10;99.90
15615;DHT22;7907;51.368;6.730;2022-12-20T00:12:00;11.00;99.90
15615;DHT22;7907;51.368;6.730;2022-12-20T00:14:27;11.10;99.90
15615;DHT22;7907;51.368;6.730;2022-12-20T00:16:55;11.10;99.90
15615;DHT22;7907;51.368;6.730;2022-12-20T00:19:23;11.10;99.90
15615;DHT22;7907;51.368;6.730;2022-12-20T00:21:50;11.10;99.90
15615;DHT22;7907;51.368;6.730;2022-12-20T00:24:17;11.10;99.90
15615;DHT22;7907;51.368;6.730;2022-12-20T00:26:44;11.20;99.90
15615;DHT22;7907;51.368;6.730;2022-12-20T00:29:11;11.10;99.90
15615;DHT22;7907;51.368;6.730;2022-12-20T00:31:38;11.10;99.90
15615;DHT22;7907;51.368;6.730;2022-12-20T00:34:08;11.20;99.90
15615;DHT22;7907;51.368;6.730;2022-12-20T00:36:35;11.20;99.90
15615;DHT22;7907;51.368;6.730;2022-12-20T00:39:02;11.20;99.90
15615;DHT22;7907;51.368;6.730;2022-12-20T00:41:32;11.20;99.90
15615;DHT22;7907;51.368;6.730;2022-12-20T00:43:59;11.20;99.90
15615;DHT22;7907;51.368;6.730;2022-12-20T00:46:26;11.20;99.90
15615;DHT22;7907;51.368;6.730;2022-12-20T00:48:54;11.20;99.90
15615;DHT22;7907;51.368;6.730;2022-12-20T00:51:24;11.20;99.90
15615;DHT22;7907;51.368;6.730;2022-12-20T00:53:52;11.20;99.90
15615;DHT22;7907;51.368;6.730;2022-12-20T00:56:20;11.20;99.90
15615;DHT22;7907;51.368;6.730;2022-12-20T00:58:47;11.20;99.90
15615;DHT22;7907;51.368;6.730;2022-12-20T01:01:18;11.20;99.90
15615;DHT22;7907;51.368;6.730;2022-12-20T01:03:45;11.20;99.90
15615;DHT22;7907;51.368;6.730;2022-12-20T01:06:12;11.20;99.90
15615;DHT22;7907;51.368;6.730;2022-12-20T01:08:41;11.20;99.90
15615;DHT22;7907;51.368;6.730;2022-12-20T01:11:10;11.30;99.90
15615;DHT22;7907;51.368;6.730;2022-12-20T01:13:42;11.30;99.90
15615;DHT22;7907;51.368;6.730;2022-12-20T01:16:11;11.30;99.90
15615;DHT22;7907;51.368;6.730;2022-12-20T01:18:39;11.30;99.90
15615;DHT22;7907;51.368;6.730;2022-12-20T01:21:08;11.40;99.90
15615;DHT22;7907;51.368;6.730;2022-12-20T01:23:36;11.30;99.90
15615;DHT22;7907;51.368;6.730;2022-12-20T01:26:07;11.30;99.90
15615;DHT22;7907;51.368;6.730;2022-12-20T01:28:37;11.30;99.90
15615;DHT22;7907;51.368;6.730;2022-12-20T01:31:05;11.30;99.90
15615;DHT22;7907;51.368;6.730;2022-12-20T01:33:33;11.40;99.90
15615;DHT22;7907;51.368;6.730;2022-12-20T01:36:02;11.40;99.90
15615;DHT22;7907;51.368;6.730;2022-12-20T01:38:29;11.40;99.90
15615;DHT22;7907;51.368;6.730;2022-12-20T01:40:57;11.40;99.90
15615;DHT22;7907;51.368;6.730;2022-12-20T01:43:42;11.40;99.90
15615;DHT22;7907;51.368;6.730;2022-12-20T01:46:10;11.50;99.90
15615;DHT22;7907;51.368;6.730;2022-12-20T01:48:38;11.40;99.90
15615;DHT22;7907;51.368;6.730;2022-12-20T01:51:08;11.40;99.90
15615;DHT22;7907;51.368;6.730;2022-12-20T01:53:36;11.40;99.90
15615;DHT22;7907;51.368;6.730;2022-12-20T01:56:05;11.40;99.90
15615;DHT22;7907;51.368;6.730;2022-12-20T01:58:36;11.50;99.90
15615;DHT22;7907;51.368;6.730;2022-12-20T02:01:05;11.50;99.90
15615;DHT22;7907;51.368;6.730;2022-12-20T02:03:32;11.50;99.90
15615;DHT22;7907;51.368;6.730;2022-12-20T02:06:14;11.50;99.90
15615;DHT22;7907;51.368;6.730;2022-12-20T02:08:42;11.50;99.90
15615;DHT22;7907;51.368;6.730;2022-12-20T02:11:20;11.50;99.90
15615;DHT22;7907;51.368;6.730;2022-12-20T02:14:00;11.50;99.90
15615;DHT22;7907;51.368;6.730;2022-12-20T02:16:36;11.50;99.90
15615;DHT22;7907;51.368;6.730;2022-12-20T02:19:13;11.50;99.90
15615;DHT22;7907;51.368;6.730;2022-12-20T02:21:43;11.50;99.90
15615;DHT22;7907;51.368;6.730;2022-12-20T02:24:26;11.50;99.90
15615;DHT22;7907;51.368;6.730;2022-12-20T02:27:31;11.50;99.90
15615;DHT22;7907;51.368;6.730;2022-12-20T02:30:06;11.50;99.90
15615;DHT22;7907;51.368;6.730;2022-12-20T02:32:38;11.50;99.90
15615;DHT22;7907;51.368;6.730;2022-12-20T02:35:08;11.50;99.90
15615;DHT22;7907;51.368;6.730;2022-12-20T02:37:35;11.50;99.90
15615;DHT22;7907;51.368;6.730;2022-12-20T02:40:04;11.50;99.90
15615;DHT22;7907;51.368;6.730;2022-12-20T02:42:32;11.50;99.90
15615;DHT22;7907;51.368;6.730;2022-12-20T02:45:05;11.50;99.90
15615;DHT22;7907;51.368;6.730;2022-12-20T02:47:47;11.50;99.90
15615;DHT22;7907;51.368;6.730;2022-12-20T02:50:17;11.50;99.90
15615;DHT22;7907;51.368;6.730;2022-12-20T02:52:47;11.50;99.90
15615;DHT22;7907;51.368;6.730;2022-12-20T02:55:15;11.50;99.90
15615;DHT22;7907;51.368;6.730;2022-12-20T02:57:50;11.50;99.90
15615;DHT22;7907;51.368;6.730;2022-12-20T03:00:21;11.40;99.90
15615;DHT22;7907;51.368;6.730;2022-12-20T03:02:49;11.40;99.90
15615;DHT22;7907;51.368;6.730;2022-12-20T03:05:43;11.40;99.90
15615;DHT22;7907;51.368;6.730;2022-12-20T03:08:11;11.40;99.90
15615;DHT22;7907;51.368;6.730;2022-12-20T03:10:38;11.50;99.90
15615;DHT22;7907;51.368;6.730;2022-12-20T03:13:05;11.40;99.90
15615;DHT22;7907;51.368;6.730;2022-12-20T03:15:34;11.40;99.90
15615;DHT22;7907;51.368;6.730;2022-12-20T03:18:01;11.30;99.90
15615;DHT22;7907;51.368;6.730;2022-12-20T03:20:28;11.30;99.90
15615;DHT22;7907;51.368;6.730;2022-12-20T03:22:55;11.30;99.90
15615;DHT22;7907;51.368;6.730;2022-12-20T03:25:22;11.30;99.90
15615;DHT22;7907;51.368;6.730;2022-12-20T03:27:49;11.30;99.90
15615;DHT22;7907;51.368;6.730;2022-12-20T03:30:17;11.30;99.90
15615;DHT22;7907;51.368;6.730;2022-12-20T03:32:45;11.20;99.90
15615;DHT22;7907;51.368;6.730;2022-12-20T03:35:12;11.20;99.90
15615;DHT22;7907;51.368;6.730;2022-12-20T03:37:40;11.20;99.90
15615;DHT22;7907;51.368;6.730;2022-12-20T03:40:08;11.20;99.90
15615;DHT22;7907;51.368;6.730;2022-12-20T03:42:35;11.10;99.90
15615;DHT22;7907;51.368;6.730;2022-12-20T03:45:03;11.10;99.90
15615;DHT22;7907;51.368;6.730;2022-12-20T03:47:31;11.10;99.90
15615;DHT22;7907;51.368;6.730;2022-12-20T03:49:59;11.00;99.90
15615;DHT22;7907;51.368;6.730;2022-12-20T03:52:27;11.00;99.90
15615;DHT22;7907;51.368;6.730;2022-12-20T03:54:54;10.90;99.90
15615;DHT22;7907;51.368;6.730;2022-12-20T03:57:21;10.90;99.90
15615;DHT22;7907;51.368;6.730;2022-12-20T03:59:48;10.90;99.90
15615;DHT22;7907;51.368;6.730;2022-12-20T04:02:15;10.90;99.90
15615;DHT22;7907;51.368;6.730;2022-12-20T04:04:43;10.80;99.90
15615;DHT22;7907;51.368;6.730;2022-12-20T04:07:12;10.90;99.90
15615;DHT22;7907;51.368;6.730;2022-12-20T04:09:39;10.80;99.90
15615;DHT22;7907;51.368;6.730;2022-12-20T04:12:06;10.80;99.90
15615;DHT22;7907;51.368;6.730;2022-12-20T04:14:33;10.70;99.90
15615;DHT22;7907;51.368;6.730;2022-12-20T04:17:00;10.60;99.90
15615;DHT22;7907;51.368;6.730;2022-12-20T04:19:28;10.70;99.90
15615;DHT22;7907;51.368;6.730;2022-12-20T04:21:57;10.60;99.90
15615;DHT22;7907;51.368;6.730;2022-12-20T04:24:26;10.70;99.90
15615;DHT22;7907;51.368;6.730;2022-12-20T04:26:53;10.60;99.90
15615;DHT22;7907;51.368;6.730;2022-12-20T04:29:20;10.60;99.90
15615;DHT22;7907;51.368;6.730;2022-12-20T04:31:47;10.60;99.90
15615;DHT22;7907;51.368;6.730;2022-12-20T04:34:14;10.60;99.90
15615;DHT22;7907;51.368;6.730;2022-12-20T04:36:41;10.50;99.90
15615;DHT22;7907;51.368;6.730;2022-12-20T04:39:08;10.50;99.90
15615;DHT22;7907;51.368;6.730;2022-12-20T04:41:36;10.60;99.90
15615;DHT22;7907;51.368;6.730;2022-12-20T04:44:04;10.50;99.90
15615;DHT22;7907;51.368;6.730;2022-12-20T04:46:31;10.50;99.90
15615;DHT22;7907;51.368;6.730;2022-12-20T04:48:58;10.50;99.90
15615;DHT22;7907;51.368;6.730;2022-12-20T04:51:29;10.50;99.90
15615;DHT22;7907;51.368;6.730;2022-12-20T04:53:56;10.50;99.90
15615;DHT22;7907;51.368;6.730;2022-12-20T04:56:24;10.50;99.90
15615;DHT22;7907;51.368;6.730;2022-12-20T04:58:54;10.50;99.90
15615;DHT22;7907;51.368;6.730;2022-12-20T05:01:22;10.60;99.90
15615;DHT22;7907;51.368;6.730;2022-12-20T05:03:49;10.50;99.90
15615;DHT22;7907;51.368;6.730;2022-12-20T05:06:16;10.50;99.90
15615;DHT22;7907;51.368;6.730;2022-12-20T05:08:43;10.50;99.90
15615;DHT22;7907;51.368;6.730;2022-12-20T05:11:10;10.60;99.90
15615;DHT22;7907;51.368;6.730;2022-12-20T05:13:38;10.60;99.90
15615;DHT22;7907;51.368;6.730;2022-12-20T05:16:07;10.50;99.90
15615;DHT22;7907;51.368;6.730;2022-12-20T05:18:34;10.50;99.90
15615;DHT22;7907;51.368;6.730;2022-12-20T05:21:02;10.50;99.90
15615;DHT22;7907;51.368;6.730;2022-12-20T05:23:46;10.60;99.90
15615;DHT22;7907;51.368;6.730;2022-12-20T05:26:33;10.50;99.90
15615;DHT22;7907;51.368;6.730;2022-12-20T05:29:00;10.50;99.90
15615;DHT22;7907;51.368;6.730;2022-12-20T05:31:29;10.50;99.90
15615;DHT22;7907;51.368;6.730;2022-12-20T05:33:56;10.50;99.90
15615;DHT22;7907;51.368;6.730;2022-12-20T05:36:24;10.50;99.90
15615;DHT22;7907;51.368;6.730;2022-12-20T05:38:51;10.50;99.90
15615;DHT22;7907;51.368;6.730;2022-12-20T05:41:18;10.50;99.90
15615;DHT22;7907;51.368;6.730;2022-12-20T05:43:45;10.50;99.90
15615;DHT22;7907;51.368;6.730;2022-12-20T05:46:12;10.50;99.90
15615;DHT22;7907;51.368;6.730;2022-12-20T05:48:41;10.50;99.90
15615;DHT22;7907;51.368;6.730;2022-12-20T05:51:10;10.60;99.90
15615;DHT22;7907;51.368;6.730;2022-12-20T05:53:37;10.60;99.90
15615;DHT22;7907;51.368;6.730;2022-12-20T05:56:04;10.60;99.90
15615;DHT22;7907;51.368;6.730;2022-12-20T05:58:32;10.60;99.90
15615;DHT22;7907;51.368;6.730;2022-12-20T06:00:59;10.60;99.90
15615;DHT22;7907;51.368;6.730;2022-12-20T06:03:27;10.60;99.90
15615;DHT22;7907;51.368;6.730;2022-12-20T06:05:57;10.60;99.90
15615;DHT22;7907;51.368;6.730;2022-12-20T06:08:24;10.70;99.90
15615;DHT22;7907;51.368;6.730;2022-12-20T06:10:51;10.60;99.90
15615;DHT22;7907;51.368;6.730;2022-12-20T06:13:19;10.70;99.90
15615;DHT22;7907;51.368;6.730;2022-12-20T06:15:46;10.70;99.90
15615;DHT22;7907;51.368;6.730;2022-12-20T06:18:13;10.70;99.90
15615;DHT22;7907;51.368;6.730;2022-12-20T06:20:42;10.70;99.90
15615;DHT22;7907;51.368;6.730;2022-12-20T06:23:16;10.70;99.90
15615;DHT22;7907;51.368;6.730;2022-12-20T06:25:44;10.70;99.90
15615;DHT22;7907;51.368;6.730;2022-12-20T06:28:11;10.80;99.90
15615;DHT22;7907;51.368;6.730;2022-12-20T06:30:40;10.80;99.90
15615;DHT22;7907;51.368;6.730;2022-12-20T06:33:07;10.80;99.90
15615;DHT22;7907;51.368;6.730;2022-12-20T06:35:34;10.80;99.90
15615;DHT22;7907;51.368;6.730;2022-12-20T06:38:01;10.80;99.90
15615;DHT22;7907;51.368;6.730;2022-12-20T06:40:30;10.80;99.90
15615;DHT22;7907;51.368;6.730;2022-12-20T06:42:57;10.80;99.90
15615;DHT22;7907;51.368;6.730;2022-12-20T06:45:24;10.80;99.90
15615;DHT22;7907;51.368;6.730;2022-12-20T06:47:51;10.90;99.90
15615;DHT22;7907;51.368;6.730;2022-12-20T06:50:18;10.90;99.90
15615;DHT22;7907;51.368;6.730;2022-12-20T06:52:45;10.90;99.90
15615;DHT22;7907;51.368;6.730;2022-12-20T06:55:12;10.90;99.90
15615;DHT22;7907;51.368;6.730;2022-12-20T06:57:40;10.90;99.90
15615;DHT22;7907;51.368;6.730;2022-12-20T07:00:09;10.90;99.90
15615;DHT22;7907;51.368;6.730;2022-12-20T07:02:37;10.90;99.90
15615;DHT22;7907;51.368;6.730;2022-12-20T07:05:05;10.90;99.90
15615;DHT22;7907;51.368;6.730;2022-12-20T07:07:32;10.90;99.90
15615;DHT22;7907;51.368;6.730;2022-12-20T07:09:59;10.90;99.90
15615;DHT22;7907;51.368;6.730;2022-12-20T07:12:26;10.90;99.90
15615;DHT22;7907;51.368;6.730;2022-12-20T07:14:55;10.90;99.90
15615;DHT22;7907;51.368;6.730;2022-12-20T07:17:22;10.90;99.90
15615;DHT22;7907;51.368;6.730;2022-12-20T07:19:49;10.90;99.90
15615;DHT22;7907;51.368;6.730;2022-12-20T07:22:16;10.90;99.90
15615;DHT22;7907;51.368;6.730;2022-12-20T07:24:43;10.90;99.90
15615;DHT22;7907;51.368;6.730;2022-12-20T07:27:12;10.90;99.90
15615;DHT22;7907;51.368;6.730;2022-12-20T07:29:39;10.90;99.90
15615;DHT22;7907;51.368;6.730;2022-12-20T07:32:08;10.90;99.90
15615;DHT22;7907;51.368;6.730;2022-12-20T07:34:35;11.00;99.90
15615;DHT22;7907;51.368;6.730;2022-12-20T07:37:02;10.90;99.90
15615;DHT22;7907;51.368;6.730;2022-12-20T07:39:29;11.00;99.90
15615;DHT22;7907;51.368;6.730;2022-12-20T07:41:56;10.90;99.90
15615;DHT22;7907;51.368;6.730;2022-12-20T07:44:23;11.00;99.90
15615;DHT22;7907;51.368;6.730;2022-12-20T07:46:50;10.90;99.90
15615;DHT22;7907;51.368;6.730;2022-12-20T07:49:19;10.90;99.90
15615;DHT22;7907;51.368;6.730;2022-12-20T07:51:49;10.90;99.90
15615;DHT22;7907;51.368;6.730;2022-12-20T07:54:20;10.90;99.90
15615;DHT22;7907;51.368;6.730;2022-12-20T07:56:52;10.90;99.90
15615;DHT22;7907;51.368;6.730;2022-12-20T07:59:25;10.90;99.90
15615;DHT22;7907;51.368;6.730;2022-12-20T08:01:53;10.90;99.90
15615;DHT22;7907;51.368;6.730;2022-12-20T08:04:24;11.00;99.90
15615;DHT22;7907;51.368;6.730;2022-12-20T08:06:53;10.90;99.90
15615;DHT22;7907;51.368;6.730;2022-12-20T08:09:23;11.00;99.90
15615;DHT22;7907;51.368;6.730;2022-12-20T08:11:52;11.00;99.90
15615;DHT22;7907;51.368;6.730;2022-12-20T08:14:20;11.00;99.90
15615;DHT22;7907;51.368;6.730;2022-12-20T08:16:47;11.00;99.90
15615;DHT22;7907;51.368;6.730;2022-12-20T08:19:14;11.10;99.90
15615;DHT22;7907;51.368;6.730;2022-12-20T08:21:42;11.10;99.90
15615;DHT22;7907;51.368;6.730;2022-12-20T08:24:09;11.10;99.90
15615;DHT22;7907;51.368;6.730;2022-12-20T08:26:37;11.10;99.90
15615;DHT22;7907;51.368;6.730;2022-12-20T08:29:04;11.10;99.90
15615;DHT22;7907;51.368;6.730;2022-12-20T08:31:43;11.10;99.90
15615;DHT22;7907;51.368;6.730;2022-12-20T08:34:10;11.10;99.90
15615;DHT22;7907;51.368;6.730;2022-12-20T08:36:37;11.20;99.90
15615;DHT22;7907;51.368;6.730;2022-12-20T08:39:06;11.20;99.90
15615;DHT22;7907;51.368;6.730;2022-12-20T08:41:34;11.20;99.90
15615;DHT22;7907;51.368;6.730;2022-12-20T08:44:02;11.20;99.90
15615;DHT22;7907;51.368;6.730;2022-12-20T08:46:28;11.30;99.90
15615;DHT22;7907;51.368;6.730;2022-12-20T08:48:56;11.30;99.90
15615;DHT22;7907;51.368;6.730;2022-12-20T08:51:23;11.30;99.90
15615;DHT22;7907;51.368;6.730;2022-12-20T08:53:50;11.30;99.90
15615;DHT22;7907;51.368;6.730;2022-12-20T08:56:19;11.30;99.90
15615;DHT22;7907;51.368;6.730;2022-12-20T08:58:46;11.40;99.90
15615;DHT22;7907;51.368;6.730;2022-12-20T09:01:16;11.40;99.90
15615;DHT22;7907;51.368;6.730;2022-12-20T09:03:43;11.40;99.90
15615;DHT22;7907;51.368;6.730;2022-12-20T09:06:12;11.40;99.90
15615;DHT22;7907;51.368;6.730;2022-12-20T09:08:40;11.40;99.90
15615;DHT22;7907;51.368;6.730;2022-12-20T09:11:09;11.50;99.90
15615;DHT22;7907;51.368;6.730;2022-12-20T09:13:39;11.50;99.90
15615;DHT22;7907;51.368;6.730;2022-12-20T09:16:07;11.50;99.90
15615;DHT22;7907;51.368;6.730;2022-12-20T09:18:34;11.50;99.90
15615;DHT22;7907;51.368;6.730;2022-12-20T09:21:03;11.60;99.90
15615;DHT22;7907;51.368;6.730;2022-12-20T09:23:31;11.60;99.90
15615;DHT22;7907;51.368;6.730;2022-12-20T09:26:00;11.60;99.90
15615;DHT22;7907;51.368;6.730;2022-12-20T09:28:28;11.60;99.90
15615;DHT22;7907;51.368;6.730;2022-12-20T09:30:58;11.60;99.90
15615;DHT22;7907;51.368;6.730;2022-12-20T09:33:25;11.70;99.90
15615;DHT22;7907;51.368;6.730;2022-12-20T09:35:53;11.70;99.90
15615;DHT22;7907;51.368;6.730;2022-12-20T09:38:20;11.70;99.90
15615;DHT22;7907;51.368;6.730;2022-12-20T09:40:50;11.70;99.90
15615;DHT22;7907;51.368;6.730;2022-12-20T09:43:18;11.80;99.90
15615;DHT22;7907;51.368;6.730;2022-12-20T09:45:47;11.80;99.90
15615;DHT22;7907;51.368;6.730;2022-12-20T09:48:21;11.80;99.90
15615;DHT22;7907;51.368;6.730;2022-12-20T09:50:58;11.80;99.90
15615;DHT22;7907;51.368;6.730;2022-12-20T09:53:35;11.80;99.90
15615;DHT22;7907;51.368;6.730;2022-12-20T09:56:09;11.90;99.90
15615;DHT22;7907;51.368;6.730;2022-12-20T09:58:52;11.90;99.90
15615;DHT22;7907;51.368;6.730;2022-12-20T10:01:24;11.90;99.90
15615;DHT22;7907;51.368;6.730;2022-12-20T10:03:53;11.90;99.90
15615;DHT22;7907;51.368;6.730;2022-12-20T10:06:29;11.90;99.90
15615;DHT22;7907;51.368;6.730;2022-12-20T10:09:01;11.90;99.90
15615;DHT22;7907;51.368;6.730;2022-12-20T10:11:41;11.90;99.90
15615;DHT22;7907;51.368;6.730;2022-12-20T10:14:24;11.90;99.90
15615;DHT22;7907;51.368;6.730;2022-12-20T10:17:00;11.90;99.90
15615;DHT22;7907;51.368;6.730;2022-12-20T10:22:31;12.00;99.90
15615;DHT22;7907;51.368;6.730;2022-12-20T10:25:12;12.00;99.90
15615;DHT22;7907;51.368;6.730;2022-12-20T10:27:40;12.00;99.90
15615;DHT22;7907;51.368;6.730;2022-12-20T10:30:12;12.00;99.90
15615;DHT22;7907;51.368;6.730;2022-12-20T10:32:47;12.10;99.90
15615;DHT22;7907;51.368;6.730;2022-12-20T10:35:26;12.10;99.90
15615;DHT22;7907;51.368;6.730;2022-12-20T10:37:58;12.10;99.90
15615;DHT22;7907;51.368;6.730;2022-12-20T10:40:26;12.20;99.90
15615;DHT22;7907;51.368;6.730;2022-12-20T10:42:54;12.20;99.90
15615;DHT22;7907;51.368;6.730;2022-12-20T10:45:33;12.20;99.90
15615;DHT22;7907;51.368;6.730;2022-12-20T10:48:02;12.20;99.90
15615;DHT22;7907;51.368;6.730;2022-12-20T10:50:32;12.20;99.90
15615;DHT22;7907;51.368;6.730;2022-12-20T10:53:20;12.20;99.90
15615;DHT22;7907;51.368;6.730;2022-12-20T10:55:48;12.30;99.90
15615;DHT22;7907;51.368;6.730;2022-12-20T10:58:30;12.30;99.90
15615;DHT22;7907;51.368;6.730;2022-12-20T11:01:10;12.30;99.90
15615;DHT22;7907;51.368;6.730;2022-12-20T11:03:57;12.30;99.90
15615;DHT22;7907;51.368;6.730;2022-12-20T11:06:28;12.30;99.90
15615;DHT22;7907;51.368;6.730;2022-12-20T11:09:22;12.30;99.90
15615;DHT22;7907;51.368;6.730;2022-12-20T11:12:01;12.30;99.90
15615;DHT22;7907;51.368;6.730;2022-12-20T11:14:29;12.30;99.90
15615;DHT22;7907;51.368;6.730;2022-12-20T11:16:58;12.30;99.90
15615;DHT22;7907;51.368;6.730;2022-12-20T11:19:45;12.30;99.90
15615;DHT22;7907;51.368;6.730;2022-12-20T11:22:29;12.30;99.90
15615;DHT22;7907;51.368;6.730;2022-12-20T11:25:10;12.40;99.90
15615;DHT22;7907;51.368;6.730;2022-12-20T11:27:54;12.40;99.90
15615;DHT22;7907;51.368;6.730;2022-12-20T11:30:28;12.40;99.90
15615;DHT22;7907;51.368;6.730;2022-12-20T11:33:15;12.40;99.90
15615;DHT22;7907;51.368;6.730;2022-12-20T11:35:52;12.40;99.90
15615;DHT22;7907;51.368;6.730;2022-12-20T11:38:32;12.40;99.90
15615;DHT22;7907;51.368;6.730;2022-12-20T11:41:12;12.40;99.90
15615;DHT22;7907;51.368;6.730;2022-12-20T11:43:59;12.50;99.90
15615;DHT22;7907;51.368;6.730;2022-12-20T11:46:39;12.50;99.90
15615;DHT22;7907;51.368;6.730;2022-12-20T11:49:26;12.50;99.90
15615;DHT22;7907;51.368;6.730;2022-12-20T11:52:03;12.50;99.90
15615;DHT22;7907;51.368;6.730;2022-12-20T11:54:38;12.50;99.90
15615;DHT22;7907;51.368;6.730;2022-12-20T11:57:12;12.60;99.90
15615;DHT22;7907;51.368;6.730;2022-12-20T11:59:46;12.60;99.90
15615;DHT22;7907;51.368;6.730;2022-12-20T12:02:17;12.70;99.90
15615;DHT22;7907;51.368;6.730;2022-12-20T12:04:52;12.70;99.90
15615;DHT22;7907;51.368;6.730;2022-12-20T12:07:22;12.70;99.90
15615;DHT22;7907;51.368;6.730;2022-12-20T12:09:58;12.70;99.90
15615;DHT22;7907;51.368;6.730;2022-12-20T12:12:31;12.70;99.90
15615;DHT22;7907;51.368;6.730;2022-12-20T12:15:02;12.70;99.90
15615;DHT22;7907;51.368;6.730;2022-12-20T12:17:35;12.80;99.90
15615;DHT22;7907;51.368;6.730;2022-12-20T12:20:22;12.80;99.90
15615;DHT22;7907;51.368;6.730;2022-12-20T12:22:54;12.90;99.90
15615;DHT22;7907;51.368;6.730;2022-12-20T12:25:25;12.90;99.90
15615;DHT22;7907;51.368;6.730;2022-12-20T12:27:52;12.90;99.90
15615;DHT22;7907;51.368;6.730;2022-12-20T12:30:20;12.90;99.90
15615;DHT22;7907;51.368;6.730;2022-12-20T12:32:52;13.00;99.90
15615;DHT22;7907;51.368;6.730;2022-12-20T12:35:45;12.90;99.90
15615;DHT22;7907;51.368;6.730;2022-12-20T12:38:45;13.00;99.90
15615;DHT22;7907;51.368;6.730;2022-12-20T12:41:50;13.00;99.90
15615;DHT22;7907;51.368;6.730;2022-12-20T12:44:35;13.00;99.90
15615;DHT22;7907;51.368;6.730;2022-12-20T12:47:08;13.00;99.90
15615;DHT22;7907;51.368;6.730;2022-12-20T12:49:38;13.00;99.90
15615;DHT22;7907;51.368;6.730;2022-12-20T12:52:06;12.90;99.90
15615;DHT22;7907;51.368;6.730;2022-12-20T12:54:36;12.90;99.90
15615;DHT22;7907;51.368;6.730;2022-12-20T12:57:10;12.90;99.90
15615;DHT22;7907;51.368;6.730;2022-12-20T12:59:41;12.80;99.90
15615;DHT22;7907;51.368;6.730;2022-12-20T13:02:32;12.70;99.90
15615;DHT22;7907;51.368;6.730;2022-12-20T13:05:28;12.60;99.90
15615;DHT22;7907;51.368;6.730;2022-12-20T13:07:50;12.60;99.90
15615;DHT22;7907;51.368;6.730;2022-12-20T13:10:56;12.50;99.90
15615;DHT22;7907;51.368;6.730;2022-12-20T13:13:25;12.60;99.90
15615;DHT22;7907;51.368;6.730;2022-12-20T13:16:12;12.60;99.90
15615;DHT22;7907;51.368;6.730;2022-12-20T13:19:13;12.50;99.90
15615;DHT22;7907;51.368;6.730;2022-12-20T13:21:44;12.50;99.90
15615;DHT22;7907;51.368;6.730;2022-12-20T13:24:37;12.50;99.90
15615;DHT22;7907;51.368;6.730;2022-12-20T13:27:33;12.50;99.90
15615;DHT22;7907;51.368;6.730;2022-12-20T13:33:17;12.50;99.90
15615;DHT22;7907;51.368;6.730;2022-12-20T13:38:52;12.40;99.90
15615;DHT22;7907;51.368;6.730;2022-12-20T13:41:40;12.40;99.90
15615;DHT22;7907;51.368;6.730;2022-12-20T13:44:32;12.40;99.90
15615;DHT22;7907;51.368;6.730;2022-12-20T13:47:05;12.30;99.90
15615;DHT22;7907;51.368;6.730;2022-12-20T13:49:40;12.30;99.90
15615;DHT22;7907;51.368;6.730;2022-12-20T13:52:20;12.40;99.90
15615;DHT22;7907;51.368;6.730;2022-12-20T13:54:51;12.30;99.90
15615;DHT22;7907;51.368;6.730;2022-12-20T13:57:26;12.30;99.90
15615;DHT22;7907;51.368;6.730;2022-12-20T13:59:56;12.30;99.90
15615;DHT22;7907;51.368;6.730;2022-12-20T14:02:28;12.30;99.90
15615;DHT22;7907;51.368;6.730;2022-12-20T14:04:59;12.30;99.90
15615;DHT22;7907;51.368;6.730;2022-12-20T14:07:28;12.30;99.90
15615;DHT22;7907;51.368;6.730;2022-12-20T14:09:59;12.20;99.90
15615;DHT22;7907;51.368;6.730;2022-12-20T14:12:27;12.20;99.90
15615;DHT22;7907;51.368;6.730;2022-12-20T14:14:56;12.20;99.90
15615;DHT22;7907;51.368;6.730;2022-12-20T14:17:24;12.20;99.90
15615;DHT22;7907;51.368;6.730;2022-12-20T14:20:05;12.20;99.90
15615;DHT22;7907;51.368;6.730;2022-12-20T14:22:33;12.20;99.90
15615;DHT22;7907;51.368;6.730;2022-12-20T14:25:03;12.10;99.90
15615;DHT22;7907;51.368;6.730;2022-12-20T14:27:34;12.10;99.90
15615;DHT22;7907;51.368;6.730;2022-12-20T14:30:04;12.10;99.90
15615;DHT22;7907;51.368;6.730;2022-12-20T14:32:31;12.10;99.90
15615;DHT22;7907;51.368;6.730;2022-12-20T14:34:58;12.10;99.90
15615;DHT22;7907;51.368;6.730;2022-12-20T14:37:30;12.10;99.90
15615;DHT22;7907;51.368;6.730;2022-12-20T14:40:01;12.10;99.90
15615;DHT22;7907;51.368;6.730;2022-12-20T14:42:32;12.10;99.90
15615;DHT22;7907;51.368;6.730;2022-12-20T14:45:15;12.10;99.90
15615;DHT22;7907;51.368;6.730;2022-12-20T14:47:55;12.10;99.90
15615;DHT22;7907;51.368;6.730;2022-12-20T14:50:28;12.10;99.90
15615;DHT22;7907;51.368;6.730;2022-12-20T14:52:57;12.10;99.90
15615;DHT22;7907;51.368;6.730;2022-12-20T14:55:31;12.10;99.90
15615;DHT22;7907;51.368;6.730;2022-12-20T14:57:59;12.00;99.90
15615;DHT22;7907;51.368;6.730;2022-12-20T15:00:28;12.00;99.90
15615;DHT22;7907;51.368;6.730;2022-12-20T15:03:02;12.00;99.90
15615;DHT22;7907;51.368;6.730;2022-12-20T15:05:50;12.00;99.90
15615;DHT22;7907;51.368;6.730;2022-12-20T15:08:22;12.00;99.90
15615;DHT22;7907;51.368;6.730;2022-12-20T15:10:58;12.00;99.90
15615;DHT22;7907;51.368;6.730;2022-12-20T15:13:31;12.00;99.90
15615;DHT22;7907;51.368;6.730;2022-12-20T15:16:00;12.00;99.90
15615;DHT22;7907;51.368;6.730;2022-12-20T15:18:29;12.00;99.90
15615;DHT22;7907;51.368;6.730;2022-12-20T15:21:05;12.00;99.90
15615;DHT22;7907;51.368;6.730;2022-12-20T15:23:34;12.00;99.90
15615;DHT22;7907;51.368;6.730;2022-12-20T15:26:01;12.00;99.90
15615;DHT22;7907;51.368;6.730;2022-12-20T15:28:29;11.90;99.90
15615;DHT22;7907;51.368;6.730;2022-12-20T15:30:56;11.90;99.90
15615;DHT22;7907;51.368;6.730;2022-12-20T15:33:25;11.80;99.90
15615;DHT22;7907;51.368;6.730;2022-12-20T15:35:53;11.80;99.90
15615;DHT22;7907;51.368;6.730;2022-12-20T15:38:23;11.90;99.90
15615;DHT22;7907;51.368;6.730;2022-12-20T15:40:54;11.80;99.90
15615;DHT22;7907;51.368;6.730;2022-12-20T15:43:23;11.80;99.90
15615;DHT22;7907;51.368;6.730;2022-12-20T15:45:52;11.80;99.90
15615;DHT22;7907;51.368;6.730;2022-12-20T15:48:22;11.70;99.90
15615;DHT22;7907;51.368;6.730;2022-12-20T15:50:52;11.70;99.90
15615;DHT22;7907;51.368;6.730;2022-12-20T15:53:24;11.70;99.90
15615;DHT22;7907;51.368;6.730;2022-12-20T15:55:55;11.80;99.90
15615;DHT22;7907;51.368;6.730;2022-12-20T15:58:23;11.70;99.90
15615;DHT22;7907;51.368;6.730;2022-12-20T16:00:53;11.70;99.90
15615;DHT22;7907;51.368;6.730;2022-12-20T16:03:24;11.70;99.90
15615;DHT22;7907;51.368;6.730;2022-12-20T16:05:52;11.70;99.90
15615;DHT22;7907;51.368;6.730;2022-12-20T16:08:21;11.70;99.90
15615;DHT22;7907;51.368;6.730;2022-12-20T16:10:50;11.70;99.90
15615;DHT22;7907;51.368;6.730;2022-12-20T16:13:22;11.70;99.90
15615;DHT22;7907;51.368;6.730;2022-12-20T16:15:49;11.70;99.90
15615;DHT22;7907;51.368;6.730;2022-12-20T16:18:17;11.70;99.90
15615;DHT22;7907;51.368;6.730;2022-12-20T16:20:44;11.60;99.90